首页
METAR-TAF:

METAR-TAF

机场 :

Bad Vöslau

巴特弗斯勞, 奥地利

纬度: 47-57-52N, 经度: 016-15-34E, 海拔: 233米

当前天气观测

该预报发布于29分钟前的11:00 UTC
风速2节,风向多变
温度 2°C
湿度 75%
气压
能見度: 1100
轻雾

METAR: LOAV 261100Z VRB02KT 1100 BR VV005 02/M02

时间: 12:29 (11:29 UTC)

预报

该预报发布于3小时和29分钟前的08:00 UTC
预报有效从26日的 09点(UTC)到 26日的 18点(UTC)
风速2节,风向多变
能見度: 0800
层高于500英尺
冻雾
短暂存在
从 26日的 10点(UTC)到 26日的 18点(UTC)
能見度: 2000
多云层高于800英尺
轻雾

TAF: LOAV 260800Z 2609/2618 VRB02KT 0800 FZFG VV005 TEMPO 2610/2618 2000 BR BKN008

超过4000个机场的气象观测和天气预报(METAR&TAF报告)。

可查询的气象台以黄色和红色小点在地图上表示。

将鼠标移到小点上方,可查看气象台名称。

然后点击查看天气观测和预报。

如需切换地图:点击带黑十字的绿色按钮放大地图;点击带横线的绿色按钮缩小地图;或者点击绿色箭头查看邻近地区的地图。


METAR-TAF: